Time;durP1;ratioP1;P1;durP2;ratioP2;P2;SDS_P1;SDS_P2;PMS_P1;PMS_P2;Temp;Humidity;BMP_temperature;BMP_pressure;BME280_temperature;BME280_humidity;BME280_pressure;Samples;Min_cycle;Max_cycle;Signal;HPM_P1;HPM_P2
2023/01/19 00:00:10;;;;;;;14.24;8.74;;;;;;;-2.36;100.00;94655.06;1026809;28;20039;-74
2023/01/19 00:00:41;;;;;;;14.00;7.92;;;;;;;-2.43;100.00;94644.06;1023444;28;20544;-70
2023/01/19 00:01:11;;;;;;;14.87;9.37;;;;;;;-2.37;100.00;94645.78;1022190;28;20035;-70
2023/01/19 00:01:42;;;;;;;16.50;9.67;;;;;;;-2.38;100.00;94651.94;1026608;28;20043;-72
2023/01/19 00:02:12;;;;;;;20.15;9.35;;;;;;;-2.36;100.00;94655.06;1027682;28;20026;-68
2023/01/19 00:02:46;;;;;;;17.13;9.45;;;;;;;-2.39;100.00;94645.22;1039602;28;20593;-69
2023/01/19 00:03:17;;;;;;;15.82;8.58;;;;;;;-2.36;100.00;94657.63;1043002;28;20405;-68
2023/01/19 00:03:47;;;;;;;15.12;8.54;;;;;;;-2.34;100.00;94652.31;1038622;28;20017;-70
2023/01/19 00:04:18;;;;;;;15.95;8.38;;;;;;;-2.35;100.00;94646.34;1033365;28;20511;-73
2023/01/19 00:04:48;;;;;;;17.35;9.65;;;;;;;-2.34;100.00;94647.94;1035054;28;20037;-69
2023/01/19 00:05:19;;;;;;;15.17;8.37;;;;;;;-2.33;100.00;94652.09;1034368;28;20026;-67
2023/01/19 00:05:50;;;;;;;15.53;8.70;;;;;;;-2.34;100.00;94653.09;1033876;28;20862;-70
2023/01/19 00:06:20;;;;;;;14.32;8.63;;;;;;;-2.28;100.00;94651.44;1034016;28;20029;-69
2023/01/19 00:06:51;;;;;;;13.80;8.38;;;;;;;-2.27;100.00;94653.81;1034541;28;20272;-69
2023/01/19 00:07:21;;;;;;;16.35;8.68;;;;;;;-2.26;100.00;94647.69;1038512;28;20025;-72
2023/01/19 00:07:52;;;;;;;17.33;9.43;;;;;;;-2.28;100.00;94649.69;1041503;28;20112;-68
2023/01/19 00:08:22;;;;;;;17.17;9.02;;;;;;;-2.29;100.00;94649.88;1042851;28;20017;-73
2023/01/19 00:08:53;;;;;;;14.38;8.68;;;;;;;-2.31;100.00;94649.28;1047039;28;20572;-67
2023/01/19 00:09:23;;;;;;;14.33;8.70;;;;;;;-2.29;100.00;94647.31;1046666;28;20044;-67
2023/01/19 00:09:54;;;;;;;16.20;8.25;;;;;;;-2.29;100.00;94650.66;1038701;28;20029;-70
2023/01/19 00:10:24;;;;;;;13.17;7.67;;;;;;;-2.33;100.00;94649.50;1038619;28;20076;-71
2023/01/19 00:10:54;;;;;;;14.87;8.70;;;;;;;-2.34;100.00;94647.94;1038553;28;20018;-67
2023/01/19 00:11:25;;;;;;;14.68;9.02;;;;;;;-2.31;100.00;94651.88;1042903;28;20025;-68
2023/01/19 00:11:55;;;;;;;16.98;9.43;;;;;;;-2.28;100.00;94641.16;1046998;28;20142;-67
2023/01/19 00:12:26;;;;;;;13.00;7.57;;;;;;;-2.27;100.00;94648.69;1047094;28;20024;-71
2023/01/19 00:12:57;;;;;;;15.80;8.80;;;;;;;-2.32;100.00;94640.81;1038547;28;20021;-68
2023/01/19 00:13:27;;;;;;;19.77;8.53;;;;;;;-2.25;100.00;94646.66;1034618;28;20026;-68
2023/01/19 00:13:58;;;;;;;14.18;8.23;;;;;;;-2.28;100.00;94647.13;1034474;28;20030;-69
2023/01/19 00:14:28;;;;;;;15.93;8.30;;;;;;;-2.31;100.00;94649.28;1035925;28;20021;-69
2023/01/19 00:14:58;;;;;;;16.67;9.02;;;;;;;-2.31;100.00;94654.44;1038493;28;20537;-69
2023/01/19 00:15:29;;;;;;;17.00;8.52;;;;;;;-2.35;100.00;94653.28;1038358;28;20021;-73
2023/01/19 00:15:59;;;;;;;16.92;8.93;;;;;;;-2.35;100.00;94648.94;1034066;28;20065;-68
2023/01/19 00:16:30;;;;;;;15.95;8.82;;;;;;;-2.44;100.00;94642.50;1030488;28;20448;-71
2023/01/19 00:17:00;;;;;;;14.43;7.38;;;;;;;-2.35;100.00;94648.16;1030552;28;20073;-70
2023/01/19 00:17:31;;;;;;;15.43;8.30;;;;;;;-2.34;100.00;94654.88;1026547;28;20062;-69
2023/01/19 00:18:01;;;;;;;15.77;9.43;;;;;;;-2.39;100.00;94650.34;1023774;28;20039;-70
2023/01/19 00:18:32;;;;;;;16.13;8.20;;;;;;;-2.52;100.00;94630.66;1026576;28;20019;-67
2023/01/19 00:19:03;;;;;;;17.13;8.90;;;;;;;-2.36;100.00;94660.19;1026493;28;20027;-70
2023/01/19 00:19:33;;;;;;;15.80;9.60;;;;;;;-2.39;100.00;94650.34;1034162;28;20438;-73
2023/01/19 00:20:04;;;;;;;16.80;8.90;;;;;;;-2.38;100.00;94651.94;1030430;28;20031;-68
2023/01/19 00:20:34;;;;;;;14.07;8.57;;;;;;;-2.38;100.00;94649.38;1030413;28;20045;-70
2023/01/19 00:21:05;;;;;;;14.43;8.67;;;;;;;-2.40;100.00;94659.84;1030511;28;20285;-70
2023/01/19 00:21:35;;;;;;;15.93;7.88;;;;;;;-2.34;100.00;94658.22;1034472;28;20026;-68
2023/01/19 00:22:06;;;;;;;16.43;8.93;;;;;;;-2.37;100.00;94661.22;1042759;28;20639;-68
2023/01/19 00:22:36;;;;;;;16.25;8.90;;;;;;;-2.37;100.00;94656.06;1042598;28;20032;-69
2023/01/19 00:23:07;;;;;;;19.80;9.48;;;;;;;-2.37;100.00;94656.84;1045062;28;20051;-69
2023/01/19 00:23:37;;;;;;;16.77;9.00;;;;;;;-2.35;100.00;94659.19;1038753;28;20808;-69
2023/01/19 00:24:09;;;;;;;14.93;9.20;;;;;;;-2.35;100.00;94658.41;1038492;28;20037;-67
2023/01/19 00:24:39;;;;;;;13.32;8.54;;;;;;;-2.36;100.00;94660.19;1038469;28;20589;-68
2023/01/19 00:25:10;;;;;;;18.77;9.10;;;;;;;-2.39;100.00;94658.84;1038896;28;20032;-68
2023/01/19 00:25:43;;;;;;;16.17;9.30;;;;;;;-2.42;100.00;94650.75;1033611;28;20526;-68
2023/01/19 00:26:15;;;;;;;14.54;8.82;;;;;;;-2.36;100.00;94657.63;1030706;28;20029;-69
2023/01/19 00:26:45;;;;;;;13.63;8.38;;;;;;;-2.37;100.00;94656.84;1034374;28;20075;-69
2023/01/19 00:27:16;;;;;;;15.90;8.20;;;;;;;-2.38;100.00;94651.94;1034881;28;20088;-69
2023/01/19 00:27:48;;;;;;;15.60;8.87;;;;;;;-2.38;100.00;94657.06;1039725;28;20828;-69
2023/01/19 00:28:18;;;;;;;15.30;9.18;;;;;;;-2.43;100.00;94646.63;1040145;28;20068;-70
2023/01/19 00:28:49;;;;;;;15.53;9.13;;;;;;;-2.40;100.00;94659.06;1034513;28;20491;-70
2023/01/19 00:29:20;;;;;;;18.42;9.32;;;;;;;-2.39;100.00;94658.84;1033860;28;20042;-69
2023/01/19 00:29:51;;;;;;;16.48;8.65;;;;;;;-2.39;100.00;94656.25;1036417;28;20085;-69
2023/01/19 00:30:21;;;;;;;15.67;8.57;;;;;;;-2.37;100.00;94658.63;1034748;28;20265;-69
2023/01/19 00:30:52;;;;;;;15.83;8.67;;;;;;;-2.39;100.00;94652.91;1038601;28;20576;-68
2023/01/19 00:31:22;;;;;;;16.20;9.20;;;;;;;-2.31;100.00;94655.25;1035378;28;20029;-69
2023/01/19 00:31:53;;;;;;;14.25;8.85;;;;;;;-2.34;100.00;94660.78;1038768;28;20024;-71
2023/01/19 00:32:23;;;;;;;16.13;9.03;;;;;;;-2.32;100.00;94658.78;1038479;28;20036;-72
2023/01/19 00:32:54;;;;;;;18.70;9.05;;;;;;;-2.29;100.00;94666.06;1034324;28;20511;-69
2023/01/19 00:33:24;;;;;;;15.48;8.98;;;;;;;-2.31;100.00;94662.13;1031200;28;20022;-68
2023/01/19 00:33:55;;;;;;;16.17;8.20;;;;;;;-2.30;100.00;94667.09;1041439;28;20421;-72
2023/01/19 00:34:25;;;;;;;14.80;7.68;;;;;;;-2.34;100.00;94658.22;1046909;28;20044;-68
2023/01/19 00:34:56;;;;;;;14.85;7.95;;;;;;;-2.34;100.00;94658.22;1042732;28;20107;-68
2023/01/19 00:35:26;;;;;;;14.43;8.10;;;;;;;-2.31;100.00;94662.94;1048423;28;20028;-69
2023/01/19 00:35:57;;;;;;;14.00;7.50;;;;;;;-2.39;100.00;94653.69;1046423;28;20032;-70
2023/01/19 00:36:27;;;;;;;15.47;8.57;;;;;;;-2.32;100.00;94661.34;1038607;28;20037;-70
2023/01/19 00:37:01;;;;;;;18.27;8.98;;;;;;;-2.29;100.00;94660.94;1038287;28;20384;-67
2023/01/19 00:37:31;;;;;;;12.44;8.02;;;;;;;-2.31;100.00;94667.28;1034290;28;20075;-69
2023/01/19 00:38:02;;;;;;;19.95;8.27;;;;;;;-2.34;100.00;94663.38;1031281;28;20447;-67
2023/01/19 00:38:32;;;;;;;16.65;8.15;;;;;;;-2.29;100.00;94666.06;1038627;28;20032;-66
2023/01/19 00:39:03;;;;;;;14.18;8.45;;;;;;;-2.31;100.00;94665.50;1034665;28;20538;-71
2023/01/19 00:39:33;;;;;;;13.90;8.33;;;;;;;-2.32;100.00;94660.56;1038488;28;20017;-71
2023/01/19 00:40:04;;;;;;;15.55;8.23;;;;;;;-2.34;100.00;94655.66;1034588;28;20025;-67
2023/01/19 00:40:35;;;;;;;14.36;8.32;;;;;;;-2.31;100.00;94668.09;1030401;28;20121;-70
2023/01/19 00:41:05;;;;;;;13.50;8.00;;;;;;;-2.33;100.00;94669.28;1030230;28;20030;-72
2023/01/19 00:42:40;;;;;;;15.52;8.10;;;;;;;-2.29;100.00;94675.56;1037890;28;20827;-69
2023/01/19 00:43:10;;;;;;;12.52;7.70;;;;;;;-2.26;100.00;94672.59;1038777;28;20466;-67
2023/01/19 00:43:41;;;;;;;14.43;8.40;;;;;;;-2.28;100.00;94667.66;1038989;28;20021;-69
2023/01/19 00:44:11;;;;;;;14.90;7.53;;;;;;;-2.28;100.00;94677.13;1042622;28;20041;-72
2023/01/19 00:44:42;;;;;;;14.18;7.93;;;;;;;-2.28;100.00;94670.25;1038494;28;20044;-68
2023/01/19 00:45:14;;;;;;;13.20;8.02;;;;;;;-2.23;100.00;94672.97;1038380;28;20091;-69
2023/01/19 00:45:44;;;;;;;15.06;8.08;;;;;;;-2.24;100.00;94676.53;1044771;28;20453;-68
2023/01/19 00:46:15;;;;;;;15.43;8.40;;;;;;;-2.22;100.00;94681.44;1037993;28;20056;-68
2023/01/19 00:46:45;;;;;;;13.20;8.00;;;;;;;-2.26;100.00;94670.00;1034929;28;20609;-72
2023/01/19 00:47:16;;;;;;;14.30;7.85;;;;;;;-2.22;100.00;94681.44;1038047;28;20040;-70
2023/01/19 00:47:47;;;;;;;12.40;7.47;;;;;;;-2.23;100.00;94685.81;1042635;28;20024;-68
2023/01/19 00:48:17;;;;;;;14.32;7.10;;;;;;;-2.22;100.00;94687.38;1038343;28;20568;-69
2023/01/19 00:48:47;;;;;;;12.73;7.43;;;;;;;-2.22;100.00;94682.22;1038449;28;20541;-71
2023/01/19 00:49:18;;;;;;;14.90;7.53;;;;;;;-2.19;100.00;94681.03;1034206;28;20033;-70
2023/01/19 00:49:49;;;;;;;19.92;8.18;;;;;;;-2.18;100.00;94683.41;1038807;28;20033;-68
2023/01/19 00:50:19;;;;;;;18.27;8.48;;;;;;;-2.20;100.00;94682.81;1038270;28;20038;-69
2023/01/19 00:50:50;;;;;;;14.43;7.60;;;;;;;-2.18;100.00;94685.97;1030511;28;20562;-71
2023/01/19 00:51:20;;;;;;;15.38;7.97;;;;;;;-2.20;100.00;94687.16;1034194;28;20022;-68
2023/01/19 00:51:50;;;;;;;11.15;7.35;;;;;;;-2.24;100.00;94684.25;1030319;28;20100;-68
2023/01/19 00:52:21;;;;;;;11.18;6.93;;;;;;;-2.21;100.00;94691.53;1035709;28;20034;-70
2023/01/19 00:52:52;;;;;;;13.35;8.32;;;;;;;-2.24;100.00;94684.25;1042724;28;20381;-68
2023/01/19 00:53:23;;;;;;;12.42;6.96;;;;;;;-2.17;100.00;94691.91;1038199;28;20020;-67
2023/01/19 00:53:53;;;;;;;11.93;7.27;;;;;;;-2.20;100.00;94682.03;1038735;28;20044;-72
2023/01/19 00:54:23;;;;;;;14.15;6.95;;;;;;;-2.16;100.00;94689.09;1042489;28;20060;-72
2023/01/19 00:54:54;;;;;;;12.67;7.03;;;;;;;-2.17;100.00;94690.09;1042851;28;20681;-69
2023/01/19 00:55:26;;;;;;;12.73;7.63;;;;;;;-2.17;100.00;94690.09;1034170;28;20097;-67
2023/01/19 00:55:57;;;;;;;18.08;7.28;;;;;;;-2.22;100.00;94692.50;1033622;28;20093;-69
2023/01/19 00:56:27;;;;;;;13.00;7.47;;;;;;;-2.24;100.00;94694.50;1026660;28;20108;-70
2023/01/19 00:56:58;;;;;;;11.93;7.72;;;;;;;-2.27;100.00;94696.72;1026588;28;20023;-71
2023/01/19 00:57:28;;;;;;;17.37;7.77;;;;;;;-2.27;100.00;94694.13;1031856;28;20027;-69
2023/01/19 00:57:59;;;;;;;13.65;7.70;;;;;;;-2.24;100.00;94694.50;1038554;28;20522;-68
2023/01/19 00:58:29;;;;;;;11.43;7.18;;;;;;;-2.24;100.00;94689.38;1034260;28;20014;-70
2023/01/19 00:59:00;;;;;;;13.30;7.35;;;;;;;-2.24;100.00;94693.72;1030278;28;20018;-73
2023/01/19 00:59:30;;;;;;;13.05;7.88;;;;;;;-2.20;100.00;94695.66;1030083;28;20579;-70
2023/01/19 01:00:01;;;;;;;12.90;8.07;;;;;;;-2.17;100.00;94692.69;1030272;28;20026;-68
2023/01/19 01:00:31;;;;;;;19.73;8.57;;;;;;;-2.19;100.00;94686.94;1026466;28;20461;-70
2023/01/19 01:01:03;;;;;;;13.47;7.33;;;;;;;-2.17;100.00;94692.69;1026180;28;20456;-71
2023/01/19 01:01:33;;;;;;;15.84;8.60;;;;;;;-2.22;100.00;94692.50;1026232;28;20039;-69
2023/01/19 01:02:04;;;;;;;16.73;7.93;;;;;;;-2.30;100.00;94685.06;1030683;28;20030;-69
2023/01/19 01:02:36;;;;;;;13.23;7.00;;;;;;;-2.29;100.00;94688.41;1034570;28;20097;-69
2023/01/19 01:03:06;;;;;;;18.50;7.25;;;;;;;-2.26;100.00;94703.41;1038460;28;20061;-69
2023/01/19 01:03:37;;;;;;;14.88;7.70;;;;;;;-2.25;100.00;94689.56;1030308;28;20031;-70
2023/01/19 01:04:08;;;;;;;15.52;7.18;;;;;;;-2.23;100.00;94690.16;1034418;28;20029;-69
2023/01/19 01:04:39;;;;;;;12.18;7.07;;;;;;;-2.26;100.00;94691.34;1034343;28;20052;-69
2023/01/19 01:05:09;;;;;;;12.13;6.93;;;;;;;-2.32;100.00;94686.25;1034545;28;20483;-69
2023/01/19 01:05:41;;;;;;;14.67;7.83;;;;;;;-2.28;100.00;94698.50;1033713;28;20009;-65
2023/01/19 01:06:11;;;;;;;16.88;8.26;;;;;;;-2.27;100.00;94697.50;1030771;28;20020;-69
2023/01/19 01:06:42;;;;;;;12.53;7.23;;;;;;;-2.32;100.00;94694.75;1038339;28;20025;-72
2023/01/19 01:07:12;;;;;;;13.37;7.47;;;;;;;-2.25;100.00;94702.41;1038816;28;20049;-69
2023/01/19 01:07:44;;;;;;;12.50;7.30;;;;;;;-2.26;100.00;94693.91;1038510;28;20021;-69
2023/01/19 01:08:14;;;;;;;14.48;8.15;;;;;;;-2.29;100.00;94704.63;1042366;28;20013;-70
2023/01/19 01:08:45;;;;;;;14.18;7.22;;;;;;;-2.27;100.00;94700.06;1038361;28;20034;-69
2023/01/19 01:09:15;;;;;;;12.57;7.22;;;;;;;-2.33;100.00;94695.75;1034173;28;20022;-69
2023/01/19 01:09:46;;;;;;;13.50;7.10;;;;;;;-2.37;100.00;94699.75;1034297;28;20107;-68
2023/01/19 01:10:18;;;;;;;13.50;7.15;;;;;;;-2.32;100.00;94704.25;1034392;28;20026;-70
2023/01/19 01:10:48;;;;;;;14.23;6.85;;;;;;;-2.33;100.00;94700.88;1034613;28;20021;-70
2023/01/19 01:11:19;;;;;;;13.75;8.02;;;;;;;-2.35;100.00;94702.88;1038512;28;20675;-68
2023/01/19 01:11:49;;;;;;;11.53;7.10;;;;;;;-2.33;100.00;94703.47;1042523;28;20111;-69
2023/01/19 01:12:20;;;;;;;13.57;7.25;;;;;;;-2.30;100.00;94700.47;1038220;28;20029;-69
2023/01/19 01:12:50;;;;;;;11.83;6.97;;;;;;;-2.31;100.00;94700.66;1038572;28;20021;-71
2023/01/19 01:13:21;;;;;;;13.87;7.40;;;;;;;-2.27;100.00;94705.19;1030307;28;20011;-71
2023/01/19 01:13:51;;;;;;;13.93;8.13;;;;;;;-2.31;100.00;94709.19;1030210;28;20415;-69
2023/01/19 01:14:22;;;;;;;13.50;7.28;;;;;;;-2.37;100.00;94697.16;1025911;28;20022;-70
2023/01/19 01:14:53;;;;;;;13.30;7.68;;;;;;;-2.35;100.00;94702.88;1030311;28;20562;-73
2023/01/19 01:15:25;;;;;;;16.07;7.87;;;;;;;-2.30;100.00;94708.19;1030530;28;20049;-70
2023/01/19 01:15:55;;;;;;;11.58;6.88;;;;;;;-2.31;100.00;94704.06;1029671;28;20023;-69
2023/01/19 01:16:26;;;;;;;12.48;6.93;;;;;;;-2.30;100.00;94707.41;1025477;28;20019;-69
2023/01/19 01:16:56;;;;;;;11.20;6.85;;;;;;;-2.34;100.00;94703.69;1026322;28;20015;-70
2023/01/19 01:17:27;;;;;;;12.50;7.05;;;;;;;-2.31;100.00;94706.63;1026054;28;20015;-70
2023/01/19 01:17:57;;;;;;;13.85;7.93;;;;;;;-2.35;100.00;94704.66;1031854;28;20631;-70
2023/01/19 01:18:28;;;;;;;11.00;7.15;;;;;;;-2.35;100.00;94708.00;1034159;28;20014;-68
2023/01/19 01:18:58;;;;;;;15.90;6.90;;;;;;;-2.34;100.00;94708.81;1038125;28;20010;-68
2023/01/19 01:19:29;;;;;;;15.30;7.53;;;;;;;-2.33;100.00;94706.03;1029360;28;20370;-69
2023/01/19 01:20:00;;;;;;;16.23;7.35;;;;;;;-2.34;100.00;94703.69;1034085;28;20022;-69
2023/01/19 01:20:33;;;;;;;15.65;7.43;;;;;;;-2.28;100.00;94711.34;1035766;28;20017;-69
2023/01/19 01:21:04;;;;;;;13.25;7.32;;;;;;;-2.34;100.00;94704.47;1034825;28;20075;-70
2023/01/19 01:21:36;;;;;;;10.98;7.00;;;;;;;-2.29;100.00;94711.53;1037984;28;20052;-68
2023/01/19 01:22:07;;;;;;;15.16;7.10;;;;;;;-2.31;100.00;94713.50;1038473;28;20018;-69
2023/01/19 01:22:37;;;;;;;12.60;6.90;;;;;;;-2.31;100.00;94719.47;1034048;28;20026;-69
2023/01/19 01:23:08;;;;;;;12.67;6.90;;;;;;;-2.32;100.00;94720.44;1034291;28;20029;-68
2023/01/19 01:23:38;;;;;;;14.20;7.88;;;;;;;-2.34;100.00;94717.31;1038304;28;20069;-67
2023/01/19 01:24:09;;;;;;;13.40;6.77;;;;;;;-2.31;100.00;94710.94;1038268;28;20025;-69
2023/01/19 01:24:40;;;;;;;12.63;7.37;;;;;;;-2.32;100.00;94723.00;1040885;28;20092;-69
2023/01/19 01:25:12;;;;;;;12.80;6.97;;;;;;;-2.34;100.00;94714.75;1038677;28;20029;-71
2023/01/19 01:25:42;;;;;;;13.73;7.22;;;;;;;-2.32;100.00;94720.44;1033424;28;20037;-71
2023/01/19 01:26:12;;;;;;;13.40;7.25;;;;;;;-2.33;100.00;94716.31;1026006;28;20039;-68
2023/01/19 01:26:43;;;;;;;12.30;8.27;;;;;;;-2.30;100.00;94718.47;1026333;28;20499;-69
2023/01/19 01:27:14;;;;;;;11.90;7.40;;;;;;;-2.29;100.00;94714.88;1030360;28;20019;-68
2023/01/19 01:27:44;;;;;;;12.60;7.60;;;;;;;-2.28;100.00;94713.91;1030355;28;20038;-69
2023/01/19 01:28:15;;;;;;;12.43;6.87;;;;;;;-2.25;100.00;94718.59;1032791;28;20034;-70
2023/01/19 01:28:45;;;;;;;12.07;7.27;;;;;;;-2.36;100.00;94714.16;1029932;28;20038;-70
2023/01/19 01:29:16;;;;;;;13.37;6.90;;;;;;;-2.31;100.00;94716.91;1030098;28;20038;-68
2023/01/19 01:29:47;;;;;;;14.70;7.93;;;;;;;-2.34;100.00;94713.94;1030367;28;20033;-69
2023/01/19 01:30:17;;;;;;;11.80;6.93;;;;;;;-2.33;100.00;94721.44;1034228;28;20033;-70
2023/01/19 01:30:52;;;;;;;11.13;6.22;;;;;;;-2.35;100.00;94720.84;1034287;28;20117;-70
2023/01/19 01:31:23;;;;;;;10.93;6.00;;;;;;;-2.42;100.00;94712.41;1034867;28;20030;-71
2023/01/19 01:31:54;;;;;;;10.73;6.53;;;;;;;-2.36;100.00;94727.00;1031065;28;20077;-66
2023/01/19 01:32:24;;;;;;;12.97;7.93;;;;;;;-2.34;100.00;94717.31;1030441;28;20503;-68
2023/01/19 01:32:54;;;;;;;10.63;6.33;;;;;;;-2.33;100.00;94715.53;1026290;28;20027;-68
2023/01/19 01:33:26;;;;;;;13.73;7.03;;;;;;;-2.30;100.00;94726.16;1034135;28;20498;-71
2023/01/19 01:33:56;;;;;;;10.80;6.82;;;;;;;-2.33;100.00;94720.66;1035053;28;20038;-70
2023/01/19 01:34:27;;;;;;;13.57;7.35;;;;;;;-2.32;100.00;94723.00;1039376;28;20033;-68
2023/01/19 01:34:57;;;;;;;11.43;6.85;;;;;;;-2.31;100.00;94726.34;1042972;28;20076;-70
2023/01/19 01:35:28;;;;;;;17.43;7.30;;;;;;;-2.34;100.00;94722.44;1038134;28;20082;-68
2023/01/19 01:36:01;;;;;;;10.80;7.23;;;;;;;-2.34;100.00;94719.09;1030487;28;20050;-68
2023/01/19 01:36:32;;;;;;;12.25;6.60;;;;;;;-2.39;100.00;94719.69;1026890;28;20034;-70
2023/01/19 01:37:02;;;;;;;10.87;7.03;;;;;;;-2.31;100.00;94728.94;1034328;28;20034;-67
2023/01/19 01:37:33;;;;;;;11.52;6.65;;;;;;;-2.35;100.00;94722.63;1034608;28;20064;-70
2023/01/19 01:38:03;;;;;;;12.13;7.37;;;;;;;-2.37;100.00;94725.44;1030640;28;20432;-69
2023/01/19 01:38:34;;;;;;;13.67;7.07;;;;;;;-2.35;100.00;94723.41;1030763;28;20057;-70
2023/01/19 01:39:04;;;;;;;10.68;6.28;;;;;;;-2.32;100.00;94728.13;1034107;28;20519;-68
2023/01/19 01:39:35;;;;;;;13.57;6.88;;;;;;;-2.32;100.00;94727.34;1030441;28;20030;-71
2023/01/19 01:40:06;;;;;;;11.35;6.90;;;;;;;-2.39;100.00;94717.91;1022507;29;20735;-70
2023/01/19 01:40:39;;;;;;;13.05;6.57;;;;;;;-2.39;100.00;94725.63;1030276;28;20054;-68
2023/01/19 01:41:10;;;;;;;12.07;6.82;;;;;;;-2.43;100.00;94719.31;1031296;28;20712;-69
2023/01/19 01:41:40;;;;;;;16.92;6.80;;;;;;;-2.38;100.00;94722.06;1034248;28;20050;-70
2023/01/19 01:42:18;;;;;;;10.67;6.83;;;;;;;-2.35;100.00;94733.69;1027657;28;20046;-69
2023/01/19 01:42:49;;;;;;;16.42;7.63;;;;;;;-2.34;100.00;94727.59;1026370;28;20033;-69
2023/01/19 01:43:19;;;;;;;11.63;7.20;;;;;;;-2.32;100.00;94725.56;1031132;28;20523;-69
2023/01/19 01:43:57;;;;;;;12.47;6.60;;;;;;;-2.35;100.00;94723.41;1027225;28;20027;-67
2023/01/19 01:44:52;;;;;;;11.85;6.43;;;;;;;-2.27;100.00;94732.69;1031326;28;20551;-70
2023/01/19 01:45:37;;;;;;;14.43;6.90;;;;;;;-2.36;100.00;94716.72;1034595;28;20034;-70
2023/01/19 01:46:11;;;;;;;10.20;6.40;;;;;;;-2.31;100.00;94728.94;1045158;28;20112;-68
2023/01/19 01:46:41;;;;;;;11.45;6.78;;;;;;;-2.35;100.00;94720.06;1042738;28;20449;-69
2023/01/19 01:47:12;;;;;;;10.87;6.50;;;;;;;-2.33;100.00;94729.16;1039243;28;20041;-69
2023/01/19 01:47:44;;;;;;;14.63;6.90;;;;;;;-2.33;100.00;94731.72;1033066;28;20515;-68
2023/01/19 01:48:29;;;;;;;11.40;6.78;;;;;;;-2.39;100.00;94727.41;1034900;28;20029;-73
2023/01/19 01:49:13;;;;;;;14.35;6.75;;;;;;;-2.35;100.00;94733.69;1030117;28;20068;-69
2023/01/19 01:49:44;;;;;;;12.82;7.05;;;;;;;-2.39;100.00;94724.84;1026343;28;20385;-68
2023/01/19 01:50:24;;;;;;;14.93;5.90;;;;;;;-2.35;100.00;94736.25;1030376;28;20092;-67
2023/01/19 01:51:50;;;;;;;12.15;7.30;;;;;;;-2.33;100.00;94726.56;1041885;28;20310;-68
2023/01/19 01:52:21;;;;;;;14.23;6.68;;;;;;;-2.33;100.00;94738.63;1036750;28;20406;-67
2023/01/19 01:52:57;;;;;;;11.97;7.00;;;;;;;-2.37;100.00;94733.91;1041901;28;20024;-70
2023/01/19 01:53:28;;;;;;;12.18;6.80;;;;;;;-2.37;100.00;94730.56;1039524;28;20054;-72
2023/01/19 01:54:17;;;;;;;14.43;6.53;;;;;;;-2.31;100.00;94739.19;1034423;28;20021;-68
2023/01/19 01:54:48;;;;;;;12.30;7.20;;;;;;;-2.37;100.00;94730.56;1034305;28;20049;-73
2023/01/19 01:55:18;;;;;;;11.57;6.50;;;;;;;-2.32;100.00;94733.28;1030289;28;20022;-68
2023/01/19 01:55:49;;;;;;;12.45;7.28;;;;;;;-2.34;100.00;94745.56;1035266;28;20010;-71
2023/01/19 01:56:24;;;;;;;11.47;7.03;;;;;;;-2.33;100.00;94738.63;1038410;28;20550;-69
2023/01/19 01:56:58;;;;;;;10.20;6.13;;;;;;;-2.39;100.00;94730.75;1034194;28;20610;-68
2023/01/19 01:57:29;;;;;;;13.30;6.85;;;;;;;-2.38;100.00;94734.13;1038489;28;20025;-69
2023/01/19 01:58:02;;;;;;;11.82;6.60;;;;;;;-2.36;100.00;94737.25;1034182;28;20042;-71
2023/01/19 01:58:33;;;;;;;14.30;6.82;;;;;;;-2.34;100.00;94743.00;1026280;28;20007;-68
2023/01/19 01:59:06;;;;;;;12.00;6.80;;;;;;;-2.31;100.00;94742.59;1038217;28;20025;-70
2023/01/19 01:59:42;;;;;;;11.85;6.53;;;;;;;-2.29;100.00;94742.38;1038246;28;20032;-68
2023/01/19 02:00:12;;;;;;;11.73;6.60;;;;;;;-2.31;100.00;94740.00;1034163;28;20017;-68
2023/01/19 02:03:13;;;;;;;13.57;7.03;;;;;;;-2.31;100.00;94736.63;1031344;28;20106;-67
2023/01/19 02:03:43;;;;;;;11.03;6.80;;;;;;;-2.34;100.00;94743.00;1031454;28;20040;-69
2023/01/19 02:04:14;;;;;;;13.77;6.47;;;;;;;-2.33;100.00;94742.00;1033837;28;20060;-69
2023/01/19 02:04:59;;;;;;;12.05;7.03;;;;;;;-2.34;100.00;94749.91;1038649;28;20521;-70
2023/01/19 02:05:33;;;;;;;11.02;6.64;;;;;;;-2.37;100.00;94748.53;1035729;28;20571;-70
2023/01/19 02:06:06;;;;;;;14.30;7.22;;;;;;;-2.38;100.00;94745.19;1042308;28;20064;-68
2023/01/19 02:13:45;;;;;;;13.20;6.55;;;;;;;-2.40;100.00;94757.44;1043623;28;20039;-70
2023/01/19 02:14:17;;;;;;;14.75;6.63;;;;;;;-2.38;100.00;94749.53;1034541;28;20877;-70
2023/01/19 02:14:48;;;;;;;13.35;6.38;;;;;;;-2.39;100.00;94747.94;1029805;28;20038;-70
2023/01/19 02:15:19;;;;;;;15.20;7.60;;;;;;;-2.44;100.00;94740.09;1037256;28;20025;-68
2023/01/19 02:15:51;;;;;;;13.38;7.53;;;;;;;-2.39;100.00;94751.31;1034360;28;20120;-68
2023/01/19 02:16:22;;;;;;;13.25;7.10;;;;;;;-2.38;100.00;94745.19;1037505;28;20046;-70
2023/01/19 02:16:52;;;;;;;12.17;7.20;;;;;;;-2.42;100.00;94736.28;1038305;28;20028;-69
2023/01/19 02:17:23;;;;;;;10.90;6.47;;;;;;;-2.44;100.00;94730.59;1038393;28;20022;-70
2023/01/19 02:17:53;;;;;;;12.67;7.10;;;;;;;-2.39;100.00;94745.38;1034143;28;20419;-69
2023/01/19 02:18:27;;;;;;;16.87;7.87;;;;;;;-2.43;100.00;94741.66;1030303;28;20033;-67
2023/01/19 02:18:57;;;;;;;14.65;7.82;;;;;;;-2.38;100.00;94746.97;1025944;28;20030;-69
2023/01/19 02:19:31;;;;;;;10.73;7.07;;;;;;;-2.39;100.00;94747.94;1021210;28;20481;-68
2023/01/19 02:20:02;;;;;;;15.00;8.27;;;;;;;-2.40;100.00;94747.16;1022287;29;20086;-69
2023/01/19 02:20:32;;;;;;;12.60;6.95;;;;;;;-2.40;100.00;94743.81;1025372;28;20031;-69
2023/01/19 02:21:06;;;;;;;12.77;8.03;;;;;;;-2.39;100.00;94746.16;1034885;28;20037;-71
2023/01/19 02:21:47;;;;;;;11.38;6.60;;;;;;;-2.40;100.00;94747.16;1035571;28;20022;-69
2023/01/19 02:22:24;;;;;;;17.42;7.93;;;;;;;-2.38;100.00;94755.47;1038498;28;20029;-67
2023/01/19 02:22:55;;;;;;;12.24;7.18;;;;;;;-2.41;100.00;94739.69;1039620;28;20025;-69
2023/01/19 02:23:38;;;;;;;16.83;7.67;;;;;;;-2.39;100.00;94746.16;1034951;28;20053;-68
2023/01/19 02:24:09;;;;;;;12.52;7.25;;;;;;;-2.43;100.00;94746.78;1033079;28;20747;-70
2023/01/19 02:24:39;;;;;;;15.85;7.57;;;;;;;-2.42;100.00;94750.94;1032489;28;20033;-68
2023/01/19 02:25:10;;;;;;;13.13;7.67;;;;;;;-2.49;100.00;94745.03;1036801;28;20038;-66
2023/01/19 02:25:40;;;;;;;13.47;7.10;;;;;;;-2.44;100.00;94755.50;1030135;28;20046;-67
2023/01/19 02:26:13;;;;;;;15.03;8.07;;;;;;;-2.44;100.00;94758.06;1026737;28;20037;-71
2023/01/19 02:26:44;;;;;;;14.85;7.72;;;;;;;-2.45;100.00;94756.47;1034524;28;20053;-67
2023/01/19 02:27:14;;;;;;;13.05;7.82;;;;;;;-2.44;100.00;94755.50;1030343;28;20026;-66
2023/01/19 02:27:45;;;;;;;15.00;8.33;;;;;;;-2.47;100.00;94750.78;1035086;28;20058;-70
2023/01/19 02:28:15;;;;;;;13.13;7.37;;;;;;;-2.45;100.00;94759.03;1030727;28;20174;-68
2023/01/19 02:29:00;;;;;;;16.00;7.90;;;;;;;-2.44;100.00;94756.28;1034869;28;20030;-68
2023/01/19 02:29:31;;;;;;;15.07;7.75;;;;;;;-2.49;100.00;94747.59;1035003;28;20108;-68
2023/01/19 02:30:02;;;;;;;13.43;8.27;;;;;;;-2.48;100.00;94755.13;1027916;28;20460;-69
2023/01/19 02:30:33;;;;;;;13.55;7.95;;;;;;;-2.47;100.00;94761.03;1031758;28;20030;-67
2023/01/19 02:31:04;;;;;;;10.97;6.87;;;;;;;-2.43;100.00;94762.19;1035778;28;20048;-69
2023/01/19 02:31:34;;;;;;;13.90;8.17;;;;;;;-2.43;100.00;94757.84;1040421;28;20505;-67
2023/01/19 02:32:05;;;;;;;14.23;7.20;;;;;;;-2.46;100.00;94757.47;1031871;28;20031;-67
2023/01/19 02:32:35;;;;;;;14.23;7.80;;;;;;;-2.45;100.00;94759.03;1039850;28;20040;-69
2023/01/19 02:33:06;;;;;;;15.77;7.87;;;;;;;-2.48;100.00;94749.19;1040089;28;20033;-69
2023/01/19 02:33:36;;;;;;;17.03;8.97;;;;;;;-2.47;100.00;94756.69;1033719;28;20089;-68
2023/01/19 02:34:08;;;;;;;14.30;7.93;;;;;;;-2.48;100.00;94764.59;1040041;28;20029;-67
2023/01/19 02:34:39;;;;;;;16.98;9.35;;;;;;;-2.52;100.00;94750.59;1040365;28;20026;-67
2023/01/19 02:35:10;;;;;;;15.70;7.57;;;;;;;-2.47;100.00;94763.63;1040218;28;20072;-69
2023/01/19 02:35:41;;;;;;;17.20;7.55;;;;;;;-2.48;100.00;94754.31;1035476;28;20068;-68
2023/01/19 02:36:12;;;;;;;11.67;7.40;;;;;;;-2.43;100.00;94762.97;1036284;28;20087;-70